sensor_id;sensor_type;location;lat;lon;timestamp;P1;durP1;ratioP1;P2;durP2;ratioP2
60243;SDS011;46106;51.468;5.814;2022-10-31T00:00:59;25.38;;;13.98;;
60243;SDS011;46106;51.468;5.814;2022-10-31T00:03:25;27.35;;;12.98;;
60243;SDS011;46106;51.468;5.814;2022-10-31T00:05:51;36.95;;;14.27;;
60243;SDS011;46106;51.468;5.814;2022-10-31T00:08:17;23.73;;;13.23;;
60243;SDS011;46106;51.468;5.814;2022-10-31T00:10:44;25.80;;;13.52;;
60243;SDS011;46106;51.468;5.814;2022-10-31T00:13:11;26.20;;;13.57;;
60243;SDS011;46106;51.468;5.814;2022-10-31T00:15:38;29.45;;;13.32;;
60243;SDS011;46106;51.468;5.814;2022-10-31T00:18:05;28.52;;;13.00;;
60243;SDS011;46106;51.468;5.814;2022-10-31T00:20:31;26.15;;;12.55;;
60243;SDS011;46106;51.468;5.814;2022-10-31T00:22:57;28.88;;;13.65;;
60243;SDS011;46106;51.468;5.814;2022-10-31T00:25:27;24.70;;;12.45;;
60243;SDS011;46106;51.468;5.814;2022-10-31T00:27:53;20.75;;;12.98;;
60243;SDS011;46106;51.468;5.814;2022-10-31T00:30:19;21.13;;;12.57;;
60243;SDS011;46106;51.468;5.814;2022-10-31T00:32:45;20.83;;;12.63;;
60243;SDS011;46106;51.468;5.814;2022-10-31T00:35:10;21.85;;;12.32;;
60243;SDS011;46106;51.468;5.814;2022-10-31T00:37:36;21.60;;;12.27;;
60243;SDS011;46106;51.468;5.814;2022-10-31T00:40:01;23.20;;;12.30;;
60243;SDS011;46106;51.468;5.814;2022-10-31T00:42:26;23.92;;;12.60;;
60243;SDS011;46106;51.468;5.814;2022-10-31T00:44:52;23.95;;;13.02;;
60243;SDS011;46106;51.468;5.814;2022-10-31T00:47:17;21.90;;;13.40;;
60243;SDS011;46106;51.468;5.814;2022-10-31T00:49:43;24.67;;;12.50;;
60243;SDS011;46106;51.468;5.814;2022-10-31T00:52:08;27.00;;;12.85;;
60243;SDS011;46106;51.468;5.814;2022-10-31T00:54:34;25.23;;;12.98;;
60243;SDS011;46106;51.468;5.814;2022-10-31T00:56:59;21.02;;;13.23;;
60243;SDS011;46106;51.468;5.814;2022-10-31T00:59:24;24.08;;;12.27;;
60243;SDS011;46106;51.468;5.814;2022-10-31T01:01:50;33.75;;;13.27;;
60243;SDS011;46106;51.468;5.814;2022-10-31T01:04:15;23.02;;;12.60;;
60243;SDS011;46106;51.468;5.814;2022-10-31T01:06:41;22.85;;;12.55;;
60243;SDS011;46106;51.468;5.814;2022-10-31T01:09:06;26.95;;;13.45;;
60243;SDS011;46106;51.468;5.814;2022-10-31T01:11:32;20.85;;;11.18;;
60243;SDS011;46106;51.468;5.814;2022-10-31T01:13:58;23.15;;;13.05;;
60243;SDS011;46106;51.468;5.814;2022-10-31T01:16:24;22.95;;;12.73;;
60243;SDS011;46106;51.468;5.814;2022-10-31T01:18:51;23.27;;;13.30;;
60243;SDS011;46106;51.468;5.814;2022-10-31T01:23:44;20.42;;;12.90;;
60243;SDS011;46106;51.468;5.814;2022-10-31T01:26:11;27.20;;;13.52;;
60243;SDS011;46106;51.468;5.814;2022-10-31T01:28:43;35.83;;;15.75;;
60243;SDS011;46106;51.468;5.814;2022-10-31T01:31:30;23.45;;;12.85;;
60243;SDS011;46106;51.468;5.814;2022-10-31T01:33:58;26.52;;;13.65;;
60243;SDS011;46106;51.468;5.814;2022-10-31T01:36:25;27.23;;;14.32;;
60243;SDS011;46106;51.468;5.814;2022-10-31T01:38:57;26.85;;;13.57;;
60243;SDS011;46106;51.468;5.814;2022-10-31T01:41:25;22.80;;;12.77;;
60243;SDS011;46106;51.468;5.814;2022-10-31T01:43:54;22.98;;;12.98;;
60243;SDS011;46106;51.468;5.814;2022-10-31T01:46:33;24.60;;;13.10;;
60243;SDS011;46106;51.468;5.814;2022-10-31T01:49:02;19.08;;;10.98;;
60243;SDS011;46106;51.468;5.814;2022-10-31T01:51:33;18.95;;;11.30;;
60243;SDS011;46106;51.468;5.814;2022-10-31T01:54:03;22.73;;;12.88;;
60243;SDS011;46106;51.468;5.814;2022-10-31T01:56:32;27.85;;;13.75;;
60243;SDS011;46106;51.468;5.814;2022-10-31T01:59:02;29.95;;;13.57;;
60243;SDS011;46106;51.468;5.814;2022-10-31T02:01:31;28.17;;;13.68;;
60243;SDS011;46106;51.468;5.814;2022-10-31T02:03:57;24.75;;;12.27;;
60243;SDS011;46106;51.468;5.814;2022-10-31T02:06:26;20.65;;;12.50;;
60243;SDS011;46106;51.468;5.814;2022-10-31T02:09:00;25.63;;;13.65;;
60243;SDS011;46106;51.468;5.814;2022-10-31T02:11:28;25.30;;;12.98;;
60243;SDS011;46106;51.468;5.814;2022-10-31T02:13:54;21.50;;;12.50;;
60243;SDS011;46106;51.468;5.814;2022-10-31T02:16:20;27.75;;;13.82;;
60243;SDS011;46106;51.468;5.814;2022-10-31T02:18:46;23.08;;;12.13;;
60243;SDS011;46106;51.468;5.814;2022-10-31T02:21:15;22.30;;;10.63;;
60243;SDS011;46106;51.468;5.814;2022-10-31T02:31:53;16.92;;;9.65;;
60243;SDS011;46106;51.468;5.814;2022-10-31T02:37:27;25.45;;;11.27;;
60243;SDS011;46106;51.468;5.814;2022-10-31T02:40:23;25.10;;;11.90;;
60243;SDS011;46106;51.468;5.814;2022-10-31T02:43:10;24.42;;;11.65;;
60243;SDS011;46106;51.468;5.814;2022-10-31T02:45:48;25.45;;;12.00;;
60243;SDS011;46106;51.468;5.814;2022-10-31T02:48:32;23.17;;;11.65;;
60243;SDS011;46106;51.468;5.814;2022-10-31T02:51:02;23.80;;;11.00;;
60243;SDS011;46106;51.468;5.814;2022-10-31T02:53:33;20.27;;;12.43;;
60243;SDS011;46106;51.468;5.814;2022-10-31T02:58:48;24.83;;;12.03;;
60243;SDS011;46106;51.468;5.814;2022-10-31T03:01:21;18.80;;;10.40;;
60243;SDS011;46106;51.468;5.814;2022-10-31T03:09:11;22.38;;;9.50;;
60243;SDS011;46106;51.468;5.814;2022-10-31T03:11:46;17.42;;;10.25;;
60243;SDS011;46106;51.468;5.814;2022-10-31T03:14:41;21.50;;;12.32;;
60243;SDS011;46106;51.468;5.814;2022-10-31T03:17:26;26.33;;;10.65;;
60243;SDS011;46106;51.468;5.814;2022-10-31T03:20:06;20.60;;;7.72;;
60243;SDS011;46106;51.468;5.814;2022-10-31T03:22:34;14.07;;;8.25;;
60243;SDS011;46106;51.468;5.814;2022-10-31T03:25:02;10.60;;;7.60;;
60243;SDS011;46106;51.468;5.814;2022-10-31T03:27:30;11.82;;;8.55;;
60243;SDS011;46106;51.468;5.814;2022-10-31T03:30:00;14.25;;;7.82;;
60243;SDS011;46106;51.468;5.814;2022-10-31T03:32:37;13.70;;;8.98;;
60243;SDS011;46106;51.468;5.814;2022-10-31T03:35:07;15.93;;;9.27;;
60243;SDS011;46106;51.468;5.814;2022-10-31T03:37:36;22.65;;;9.07;;
60243;SDS011;46106;51.468;5.814;2022-10-31T03:40:04;25.60;;;11.48;;
60243;SDS011;46106;51.468;5.814;2022-10-31T03:42:33;17.40;;;10.35;;
60243;SDS011;46106;51.468;5.814;2022-10-31T03:45:06;21.30;;;10.55;;
60243;SDS011;46106;51.468;5.814;2022-10-31T03:47:38;15.93;;;9.65;;
60243;SDS011;46106;51.468;5.814;2022-10-31T03:50:05;19.98;;;11.27;;
60243;SDS011;46106;51.468;5.814;2022-10-31T04:00:33;16.05;;;10.02;;
60243;SDS011;46106;51.468;5.814;2022-10-31T04:05:31;20.00;;;10.40;;
60243;SDS011;46106;51.468;5.814;2022-10-31T04:07:57;19.02;;;11.07;;
60243;SDS011;46106;51.468;5.814;2022-10-31T04:10:25;22.77;;;11.20;;
60243;SDS011;46106;51.468;5.814;2022-10-31T04:12:55;21.65;;;13.07;;
60243;SDS011;46106;51.468;5.814;2022-10-31T04:15:25;19.23;;;11.82;;
60243;SDS011;46106;51.468;5.814;2022-10-31T04:17:53;19.10;;;12.05;;
60243;SDS011;46106;51.468;5.814;2022-10-31T04:20:28;19.13;;;11.07;;
60243;SDS011;46106;51.468;5.814;2022-10-31T04:22:55;15.45;;;10.80;;
60243;SDS011;46106;51.468;5.814;2022-10-31T04:25:21;17.95;;;11.00;;
60243;SDS011;46106;51.468;5.814;2022-10-31T04:27:46;23.20;;;12.32;;
60243;SDS011;46106;51.468;5.814;2022-10-31T04:30:12;29.08;;;12.48;;
60243;SDS011;46106;51.468;5.814;2022-10-31T04:32:37;18.60;;;11.77;;
60243;SDS011;46106;51.468;5.814;2022-10-31T04:35:02;20.75;;;10.95;;
60243;SDS011;46106;51.468;5.814;2022-10-31T04:37:28;22.83;;;11.73;;
60243;SDS011;46106;51.468;5.814;2022-10-31T04:39:54;20.08;;;11.57;;
60243;SDS011;46106;51.468;5.814;2022-10-31T04:42:19;15.55;;;11.85;;
60243;SDS011;46106;51.468;5.814;2022-10-31T04:44:47;17.15;;;12.75;;
60243;SDS011;46106;51.468;5.814;2022-10-31T04:47:12;21.67;;;12.40;;
60243;SDS011;46106;51.468;5.814;2022-10-31T04:49:37;20.50;;;12.10;;
60243;SDS011;46106;51.468;5.814;2022-10-31T04:52:03;15.07;;;11.23;;
60243;SDS011;46106;51.468;5.814;2022-10-31T04:54:28;21.88;;;13.60;;
60243;SDS011;46106;51.468;5.814;2022-10-31T04:56:54;23.10;;;13.20;;
60243;SDS011;46106;51.468;5.814;2022-10-31T04:59:19;22.33;;;13.32;;
60243;SDS011;46106;51.468;5.814;2022-10-31T05:01:45;24.13;;;14.43;;
60243;SDS011;46106;51.468;5.814;2022-10-31T05:04:10;23.77;;;15.25;;
60243;SDS011;46106;51.468;5.814;2022-10-31T05:06:36;22.70;;;13.73;;
60243;SDS011;46106;51.468;5.814;2022-10-31T05:09:01;27.50;;;15.52;;
60243;SDS011;46106;51.468;5.814;2022-10-31T05:11:27;30.80;;;16.02;;
60243;SDS011;46106;51.468;5.814;2022-10-31T05:13:52;35.67;;;15.43;;
60243;SDS011;46106;51.468;5.814;2022-10-31T05:16:18;23.27;;;14.70;;
60243;SDS011;46106;51.468;5.814;2022-10-31T05:18:43;30.45;;;15.13;;
60243;SDS011;46106;51.468;5.814;2022-10-31T05:21:09;30.38;;;14.05;;
60243;SDS011;46106;51.468;5.814;2022-10-31T05:23:34;24.60;;;14.80;;
60243;SDS011;46106;51.468;5.814;2022-10-31T05:26:00;30.33;;;14.60;;
60243;SDS011;46106;51.468;5.814;2022-10-31T05:28:25;31.38;;;16.30;;
60243;SDS011;46106;51.468;5.814;2022-10-31T05:30:51;26.25;;;15.05;;
60243;SDS011;46106;51.468;5.814;2022-10-31T05:33:16;26.77;;;15.05;;
60243;SDS011;46106;51.468;5.814;2022-10-31T05:35:42;35.50;;;15.00;;
60243;SDS011;46106;51.468;5.814;2022-10-31T05:38:07;29.40;;;15.32;;
60243;SDS011;46106;51.468;5.814;2022-10-31T05:40:32;27.52;;;14.25;;
60243;SDS011;46106;51.468;5.814;2022-10-31T05:42:58;28.23;;;14.70;;
60243;SDS011;46106;51.468;5.814;2022-10-31T05:45:24;25.45;;;14.00;;
60243;SDS011;46106;51.468;5.814;2022-10-31T05:47:50;20.40;;;12.98;;
60243;SDS011;46106;51.468;5.814;2022-10-31T05:50:21;26.90;;;14.02;;
60243;SDS011;46106;51.468;5.814;2022-10-31T05:52:47;28.20;;;14.15;;
60243;SDS011;46106;51.468;5.814;2022-10-31T05:55:18;22.80;;;13.35;;
60243;SDS011;46106;51.468;5.814;2022-10-31T05:57:44;32.45;;;14.75;;
60243;SDS011;46106;51.468;5.814;2022-10-31T06:00:09;31.67;;;15.30;;
60243;SDS011;46106;51.468;5.814;2022-10-31T06:02:35;31.75;;;15.63;;
60243;SDS011;46106;51.468;5.814;2022-10-31T06:05:00;37.10;;;20.40;;
60243;SDS011;46106;51.468;5.814;2022-10-31T06:07:26;43.40;;;17.80;;
60243;SDS011;46106;51.468;5.814;2022-10-31T06:09:52;31.48;;;14.30;;
60243;SDS011;46106;51.468;5.814;2022-10-31T06:12:17;28.10;;;14.55;;
60243;SDS011;46106;51.468;5.814;2022-10-31T06:14:43;21.05;;;13.52;;
60243;SDS011;46106;51.468;5.814;2022-10-31T06:17:08;37.58;;;12.82;;
60243;SDS011;46106;51.468;5.814;2022-10-31T06:19:34;30.20;;;12.85;;
60243;SDS011;46106;51.468;5.814;2022-10-31T06:21:59;36.17;;;14.88;;
60243;SDS011;46106;51.468;5.814;2022-10-31T06:24:25;19.73;;;13.40;;
60243;SDS011;46106;51.468;5.814;2022-10-31T06:26:50;24.73;;;13.15;;
60243;SDS011;46106;51.468;5.814;2022-10-31T06:29:15;21.33;;;13.52;;
60243;SDS011;46106;51.468;5.814;2022-10-31T06:31:41;22.70;;;12.48;;
60243;SDS011;46106;51.468;5.814;2022-10-31T06:34:06;29.23;;;13.07;;
60243;SDS011;46106;51.468;5.814;2022-10-31T06:36:32;28.23;;;10.65;;
60243;SDS011;46106;51.468;5.814;2022-10-31T06:38:57;22.40;;;9.55;;
60243;SDS011;46106;51.468;5.814;2022-10-31T06:41:26;16.55;;;10.82;;
60243;SDS011;46106;51.468;5.814;2022-10-31T06:43:51;15.05;;;10.27;;
60243;SDS011;46106;51.468;5.814;2022-10-31T06:46:16;15.45;;;10.57;;
60243;SDS011;46106;51.468;5.814;2022-10-31T06:48:42;19.80;;;10.98;;
60243;SDS011;46106;51.468;5.814;2022-10-31T06:51:08;19.42;;;10.57;;
60243;SDS011;46106;51.468;5.814;2022-10-31T06:53:34;17.70;;;11.68;;
60243;SDS011;46106;51.468;5.814;2022-10-31T06:56:02;16.85;;;11.30;;
60243;SDS011;46106;51.468;5.814;2022-10-31T06:58:28;20.60;;;12.65;;
60243;SDS011;46106;51.468;5.814;2022-10-31T07:00:53;27.10;;;12.43;;
60243;SDS011;46106;51.468;5.814;2022-10-31T07:03:19;26.40;;;13.85;;
60243;SDS011;46106;51.468;5.814;2022-10-31T07:05:45;25.15;;;13.00;;
60243;SDS011;46106;51.468;5.814;2022-10-31T07:08:11;36.30;;;11.75;;
60243;SDS011;46106;51.468;5.814;2022-10-31T07:10:38;24.50;;;12.55;;
60243;SDS011;46106;51.468;5.814;2022-10-31T07:13:05;28.60;;;12.57;;
60243;SDS011;46106;51.468;5.814;2022-10-31T07:15:38;30.48;;;12.52;;
60243;SDS011;46106;51.468;5.814;2022-10-31T07:18:06;111.60;;;14.68;;
60243;SDS011;46106;51.468;5.814;2022-10-31T07:20:33;68.63;;;12.48;;
60243;SDS011;46106;51.468;5.814;2022-10-31T07:23:00;26.52;;;12.77;;
60243;SDS011;46106;51.468;5.814;2022-10-31T07:25:26;49.90;;;13.98;;
60243;SDS011;46106;51.468;5.814;2022-10-31T07:27:52;28.13;;;13.98;;
60243;SDS011;46106;51.468;5.814;2022-10-31T07:30:18;36.72;;;14.80;;
60243;SDS011;46106;51.468;5.814;2022-10-31T07:32:44;24.73;;;14.35;;
60243;SDS011;46106;51.468;5.814;2022-10-31T07:35:14;28.33;;;13.25;;
60243;SDS011;46106;51.468;5.814;2022-10-31T07:37:45;24.42;;;13.07;;
60243;SDS011;46106;51.468;5.814;2022-10-31T07:40:11;27.02;;;13.50;;
60243;SDS011;46106;51.468;5.814;2022-10-31T07:42:41;24.27;;;12.77;;
60243;SDS011;46106;51.468;5.814;2022-10-31T07:45:08;25.00;;;13.60;;
60243;SDS011;46106;51.468;5.814;2022-10-31T07:47:39;30.60;;;16.05;;
60243;SDS011;46106;51.468;5.814;2022-10-31T07:50:05;32.15;;;18.70;;
60243;SDS011;46106;51.468;5.814;2022-10-31T07:52:32;31.35;;;22.05;;
60243;SDS011;46106;51.468;5.814;2022-10-31T07:54:57;26.42;;;17.45;;
60243;SDS011;46106;51.468;5.814;2022-10-31T07:57:23;29.52;;;18.92;;
60243;SDS011;46106;51.468;5.814;2022-10-31T07:59:48;34.95;;;19.95;;
60243;SDS011;46106;51.468;5.814;2022-10-31T08:02:14;43.42;;;22.17;;
60243;SDS011;46106;51.468;5.814;2022-10-31T08:04:39;48.60;;;27.10;;
60243;SDS011;46106;51.468;5.814;2022-10-31T08:07:04;37.95;;;25.25;;
60243;SDS011;46106;51.468;5.814;2022-10-31T08:09:30;39.05;;;25.92;;
60243;SDS011;46106;51.468;5.814;2022-10-31T08:11:55;33.92;;;23.38;;
60243;SDS011;46106;51.468;5.814;2022-10-31T08:14:21;36.85;;;21.83;;
60243;SDS011;46106;51.468;5.814;2022-10-31T08:16:47;35.42;;;19.60;;
60243;SDS011;46106;51.468;5.814;2022-10-31T08:19:12;32.50;;;19.27;;
60243;SDS011;46106;51.468;5.814;2022-10-31T08:21:38;35.88;;;18.00;;
60243;SDS011;46106;51.468;5.814;2022-10-31T08:24:04;30.15;;;18.38;;
60243;SDS011;46106;51.468;5.814;2022-10-31T08:26:29;27.90;;;17.48;;
60243;SDS011;46106;51.468;5.814;2022-10-31T08:28:55;34.78;;;19.75;;
60243;SDS011;46106;51.468;5.814;2022-10-31T08:31:21;37.05;;;18.13;;
60243;SDS011;46106;51.468;5.814;2022-10-31T08:33:48;30.35;;;17.52;;
60243;SDS011;46106;51.468;5.814;2022-10-31T08:36:13;33.33;;;18.23;;
60243;SDS011;46106;51.468;5.814;2022-10-31T08:38:39;29.70;;;17.25;;
60243;SDS011;46106;51.468;5.814;2022-10-31T08:41:04;33.10;;;18.38;;
60243;SDS011;46106;51.468;5.814;2022-10-31T08:43:30;35.47;;;19.08;;
60243;SDS011;46106;51.468;5.814;2022-10-31T08:45:55;40.60;;;20.13;;
60243;SDS011;46106;51.468;5.814;2022-10-31T08:48:21;36.13;;;21.15;;
60243;SDS011;46106;51.468;5.814;2022-10-31T08:50:46;41.20;;;20.33;;
60243;SDS011;46106;51.468;5.814;2022-10-31T08:53:16;49.70;;;20.55;;
60243;SDS011;46106;51.468;5.814;2022-10-31T08:55:44;38.72;;;20.55;;
60243;SDS011;46106;51.468;5.814;2022-10-31T08:58:17;39.60;;;21.00;;
60243;SDS011;46106;51.468;5.814;2022-10-31T09:00:44;39.83;;;21.52;;
60243;SDS011;46106;51.468;5.814;2022-10-31T09:03:21;38.60;;;22.08;;
60243;SDS011;46106;51.468;5.814;2022-10-31T09:05:54;46.03;;;23.00;;
60243;SDS011;46106;51.468;5.814;2022-10-31T09:08:21;42.20;;;21.65;;
60243;SDS011;46106;51.468;5.814;2022-10-31T09:10:46;54.13;;;22.05;;
60243;SDS011;46106;51.468;5.814;2022-10-31T09:13:13;60.85;;;21.85;;
60243;SDS011;46106;51.468;5.814;2022-10-31T09:15:41;45.67;;;22.70;;
60243;SDS011;46106;51.468;5.814;2022-10-31T09:18:08;42.45;;;21.35;;
60243;SDS011;46106;51.468;5.814;2022-10-31T09:20:35;43.00;;;20.90;;
60243;SDS011;46106;51.468;5.814;2022-10-31T09:23:09;53.80;;;19.70;;
60243;SDS011;46106;51.468;5.814;2022-10-31T09:25:37;66.32;;;21.08;;
60243;SDS011;46106;51.468;5.814;2022-10-31T09:28:03;52.35;;;21.30;;
60243;SDS011;46106;51.468;5.814;2022-10-31T09:30:30;49.17;;;22.40;;
60243;SDS011;46106;51.468;5.814;2022-10-31T09:32:58;39.58;;;21.35;;
60243;SDS011;46106;51.468;5.814;2022-10-31T09:35:26;44.90;;;22.55;;
60243;SDS011;46106;51.468;5.814;2022-10-31T09:38:02;43.35;;;20.05;;
60243;SDS011;46106;51.468;5.814;2022-10-31T09:40:34;40.88;;;21.25;;
60243;SDS011;46106;51.468;5.814;2022-10-31T09:51:18;43.45;;;22.52;;
60243;SDS011;46106;51.468;5.814;2022-10-31T09:54:08;37.58;;;21.88;;
60243;SDS011;46106;51.468;5.814;2022-10-31T09:56:39;46.92;;;22.98;;
60243;SDS011;46106;51.468;5.814;2022-10-31T09:59:05;43.03;;;21.77;;
60243;SDS011;46106;51.468;5.814;2022-10-31T10:01:40;46.97;;;22.92;;
60243;SDS011;46106;51.468;5.814;2022-10-31T10:07:14;47.97;;;20.40;;
60243;SDS011;46106;51.468;5.814;2022-10-31T10:09:46;43.60;;;21.60;;
60243;SDS011;46106;51.468;5.814;2022-10-31T10:23:22;48.30;;;19.42;;
60243;SDS011;46106;51.468;5.814;2022-10-31T10:26:15;37.95;;;19.58;;
60243;SDS011;46106;51.468;5.814;2022-10-31T10:28:45;43.65;;;20.77;;
60243;SDS011;46106;51.468;5.814;2022-10-31T10:31:20;41.80;;;20.77;;
60243;SDS011;46106;51.468;5.814;2022-10-31T10:36:42;37.78;;;19.63;;
60243;SDS011;46106;51.468;5.814;2022-10-31T10:39:15;40.97;;;20.23;;
60243;SDS011;46106;51.468;5.814;2022-10-31T10:41:43;47.97;;;21.73;;
60243;SDS011;46106;51.468;5.814;2022-10-31T10:44:12;42.88;;;19.85;;
60243;SDS011;46106;51.468;5.814;2022-10-31T10:46:41;46.17;;;22.20;;
60243;SDS011;46106;51.468;5.814;2022-10-31T10:49:35;41.67;;;21.38;;
60243;SDS011;46106;51.468;5.814;2022-10-31T10:52:10;44.28;;;22.58;;
60243;SDS011;46106;51.468;5.814;2022-10-31T10:57:29;52.25;;;21.70;;
60243;SDS011;46106;51.468;5.814;2022-10-31T11:00:14;46.17;;;21.92;;
60243;SDS011;46106;51.468;5.814;2022-10-31T11:02:43;45.60;;;20.98;;
60243;SDS011;46106;51.468;5.814;2022-10-31T11:05:13;40.67;;;22.13;;
60243;SDS011;46106;51.468;5.814;2022-10-31T11:07:45;43.50;;;21.92;;
60243;SDS011;46106;51.468;5.814;2022-10-31T11:10:14;49.80;;;22.15;;
60243;SDS011;46106;51.468;5.814;2022-10-31T11:12:41;47.42;;;21.70;;
60243;SDS011;46106;51.468;5.814;2022-10-31T11:15:17;48.95;;;21.42;;
60243;SDS011;46106;51.468;5.814;2022-10-31T11:17:47;40.50;;;21.20;;
60243;SDS011;46106;51.468;5.814;2022-10-31T11:22:43;44.05;;;21.20;;
60243;SDS011;46106;51.468;5.814;2022-10-31T11:25:21;46.13;;;20.77;;
60243;SDS011;46106;51.468;5.814;2022-10-31T11:28:01;46.22;;;21.30;;
60243;SDS011;46106;51.468;5.814;2022-10-31T11:30:47;50.53;;;21.70;;
60243;SDS011;46106;51.468;5.814;2022-10-31T11:33:26;47.85;;;21.63;;
60243;SDS011;46106;51.468;5.814;2022-10-31T11:35:56;44.28;;;20.05;;
60243;SDS011;46106;51.468;5.814;2022-10-31T11:38:24;88.03;;;22.92;;
60243;SDS011;46106;51.468;5.814;2022-10-31T11:41:02;73.78;;;20.40;;
60243;SDS011;46106;51.468;5.814;2022-10-31T11:43:34;40.53;;;17.60;;
60243;SDS011;46106;51.468;5.814;2022-10-31T11:46:08;36.75;;;16.40;;
60243;SDS011;46106;51.468;5.814;2022-10-31T11:48:35;30.60;;;16.02;;
60243;SDS011;46106;51.468;5.814;2022-10-31T11:51:01;32.30;;;14.93;;
60243;SDS011;46106;51.468;5.814;2022-10-31T11:53:30;34.15;;;16.25;;
60243;SDS011;46106;51.468;5.814;2022-10-31T11:56:03;43.95;;;16.33;;
60243;SDS011;46106;51.468;5.814;2022-10-31T11:58:35;48.63;;;15.07;;
60243;SDS011;46106;51.468;5.814;2022-10-31T12:01:00;36.25;;;14.05;;
60243;SDS011;46106;51.468;5.814;2022-10-31T12:03:41;27.48;;;12.90;;
60243;SDS011;46106;51.468;5.814;2022-10-31T12:06:21;26.95;;;12.35;;
60243;SDS011;46106;51.468;5.814;2022-10-31T12:08:50;25.13;;;12.43;;
60243;SDS011;46106;51.468;5.814;2022-10-31T12:11:33;33.22;;;13.07;;
60243;SDS011;46106;51.468;5.814;2022-10-31T12:22:20;28.65;;;12.07;;
60243;SDS011;46106;51.468;5.814;2022-10-31T12:28:09;37.42;;;11.80;;
60243;SDS011;46106;51.468;5.814;2022-10-31T12:36:21;24.35;;;11.25;;
60243;SDS011;46106;51.468;5.814;2022-10-31T12:42:13;61.67;;;12.82;;
60243;SDS011;46106;51.468;5.814;2022-10-31T13:04:14;33.70;;;13.73;;
60243;SDS011;46106;51.468;5.814;2022-10-31T13:09:47;31.25;;;13.18;;
60243;SDS011;46106;51.468;5.814;2022-10-31T13:12:16;26.75;;;12.75;;
60243;SDS011;46106;51.468;5.814;2022-10-31T13:14:46;32.28;;;13.30;;
60243;SDS011;46106;51.468;5.814;2022-10-31T13:17:28;26.40;;;12.57;;
60243;SDS011;46106;51.468;5.814;2022-10-31T13:20:11;33.47;;;13.30;;
60243;SDS011;46106;51.468;5.814;2022-10-31T13:22:44;31.38;;;13.73;;
60243;SDS011;46106;51.468;5.814;2022-10-31T13:25:14;27.42;;;12.70;;
60243;SDS011;46106;51.468;5.814;2022-10-31T13:30:29;42.88;;;14.45;;
60243;SDS011;46106;51.468;5.814;2022-10-31T13:33:00;28.60;;;13.95;;
60243;SDS011;46106;51.468;5.814;2022-10-31T13:43:10;39.40;;;13.18;;
60243;SDS011;46106;51.468;5.814;2022-10-31T13:45:46;26.33;;;13.25;;
60243;SDS011;46106;51.468;5.814;2022-10-31T13:50:39;26.23;;;12.80;;
60243;SDS011;46106;51.468;5.814;2022-10-31T13:55:44;28.35;;;13.85;;
60243;SDS011;46106;51.468;5.814;2022-10-31T13:58:32;31.67;;;13.35;;
60243;SDS011;46106;51.468;5.814;2022-10-31T14:01:04;30.52;;;13.32;;
60243;SDS011;46106;51.468;5.814;2022-10-31T14:03:40;31.38;;;14.25;;
60243;SDS011;46106;51.468;5.814;2022-10-31T14:06:08;27.55;;;12.93;;
60243;SDS011;46106;51.468;5.814;2022-10-31T14:08:37;28.23;;;13.23;;
60243;SDS011;46106;51.468;5.814;2022-10-31T14:11:16;32.47;;;12.82;;
60243;SDS011;46106;51.468;5.814;2022-10-31T14:13:52;27.88;;;12.15;;
60243;SDS011;46106;51.468;5.814;2022-10-31T14:16:24;76.57;;;14.68;;
60243;SDS011;46106;51.468;5.814;2022-10-31T14:18:58;28.42;;;12.68;;
60243;SDS011;46106;51.468;5.814;2022-10-31T14:21:28;41.60;;;12.85;;
60243;SDS011;46106;51.468;5.814;2022-10-31T14:23:57;30.75;;;11.43;;
60243;SDS011;46106;51.468;5.814;2022-10-31T14:28:52;25.70;;;10.75;;
60243;SDS011;46106;51.468;5.814;2022-10-31T14:34:23;23.13;;;10.73;;
60243;SDS011;46106;51.468;5.814;2022-10-31T14:42:25;21.20;;;9.95;;
60243;SDS011;46106;51.468;5.814;2022-10-31T14:44:59;20.02;;;9.23;;
60243;SDS011;46106;51.468;5.814;2022-10-31T14:53:30;22.55;;;8.43;;
60243;SDS011;46106;51.468;5.814;2022-10-31T14:55:58;21.83;;;7.60;;
60243;SDS011;46106;51.468;5.814;2022-10-31T15:00:58;20.90;;;7.55;;
60243;SDS011;46106;51.468;5.814;2022-10-31T15:03:26;17.98;;;7.47;;
60243;SDS011;46106;51.468;5.814;2022-10-31T15:05:56;23.67;;;6.80;;
60243;SDS011;46106;51.468;5.814;2022-10-31T15:08:50;17.40;;;6.80;;
60243;SDS011;46106;51.468;5.814;2022-10-31T15:16:25;18.40;;;6.07;;
60243;SDS011;46106;51.468;5.814;2022-10-31T15:18:59;13.63;;;5.97;;
60243;SDS011;46106;51.468;5.814;2022-10-31T15:21:29;25.42;;;6.82;;
60243;SDS011;46106;51.468;5.814;2022-10-31T15:23:57;21.63;;;5.95;;
60243;SDS011;46106;51.468;5.814;2022-10-31T15:26:46;16.98;;;6.20;;
60243;SDS011;46106;51.468;5.814;2022-10-31T15:29:16;18.77;;;5.68;;
60243;SDS011;46106;51.468;5.814;2022-10-31T15:31:53;17.80;;;6.00;;
60243;SDS011;46106;51.468;5.814;2022-10-31T15:34:27;31.40;;;7.45;;
60243;SDS011;46106;51.468;5.814;2022-10-31T15:37:00;20.15;;;5.70;;
60243;SDS011;46106;51.468;5.814;2022-10-31T15:39:26;15.43;;;5.50;;
60243;SDS011;46106;51.468;5.814;2022-10-31T15:41:52;15.73;;;6.22;;
60243;SDS011;46106;51.468;5.814;2022-10-31T15:44:21;17.73;;;5.50;;
60243;SDS011;46106;51.468;5.814;2022-10-31T15:47:02;16.75;;;6.07;;
60243;SDS011;46106;51.468;5.814;2022-10-31T15:49:31;17.05;;;5.70;;
60243;SDS011;46106;51.468;5.814;2022-10-31T15:52:21;13.23;;;5.00;;
60243;SDS011;46106;51.468;5.814;2022-10-31T15:54:58;12.68;;;4.97;;
60243;SDS011;46106;51.468;5.814;2022-10-31T15:57:26;14.70;;;5.82;;
60243;SDS011;46106;51.468;5.814;2022-10-31T15:59:52;21.42;;;5.72;;
60243;SDS011;46106;51.468;5.814;2022-10-31T16:02:22;11.73;;;5.30;;
60243;SDS011;46106;51.468;5.814;2022-10-31T16:04:56;23.00;;;5.78;;
60243;SDS011;46106;51.468;5.814;2022-10-31T16:07:23;19.33;;;5.18;;
60243;SDS011;46106;51.468;5.814;2022-10-31T16:09:50;16.38;;;4.72;;
60243;SDS011;46106;51.468;5.814;2022-10-31T16:12:22;19.13;;;5.40;;
60243;SDS011;46106;51.468;5.814;2022-10-31T16:14:50;14.60;;;4.85;;
60243;SDS011;46106;51.468;5.814;2022-10-31T16:17:19;19.92;;;5.82;;
60243;SDS011;46106;51.468;5.814;2022-10-31T16:19:54;19.80;;;5.07;;
60243;SDS011;46106;51.468;5.814;2022-10-31T16:22:31;9.93;;;4.93;;
60243;SDS011;46106;51.468;5.814;2022-10-31T16:27:39;21.52;;;5.22;;
60243;SDS011;46106;51.468;5.814;2022-10-31T16:32:54;18.73;;;5.05;;
60243;SDS011;46106;51.468;5.814;2022-10-31T16:35:38;20.23;;;5.43;;
60243;SDS011;46106;51.468;5.814;2022-10-31T16:38:04;14.00;;;5.78;;
60243;SDS011;46106;51.468;5.814;2022-10-31T16:40:30;15.95;;;4.57;;
60243;SDS011;46106;51.468;5.814;2022-10-31T16:42:57;13.45;;;4.70;;
60243;SDS011;46106;51.468;5.814;2022-10-31T16:45:29;15.07;;;4.82;;
60243;SDS011;46106;51.468;5.814;2022-10-31T16:48:02;14.93;;;5.00;;
60243;SDS011;46106;51.468;5.814;2022-10-31T16:50:31;18.40;;;4.40;;
60243;SDS011;46106;51.468;5.814;2022-10-31T16:52:57;19.27;;;4.90;;
60243;SDS011;46106;51.468;5.814;2022-10-31T16:55:23;18.73;;;4.65;;
60243;SDS011;46106;51.468;5.814;2022-10-31T16:57:50;15.70;;;4.95;;
60243;SDS011;46106;51.468;5.814;2022-10-31T17:00:18;17.83;;;5.00;;
60243;SDS011;46106;51.468;5.814;2022-10-31T17:02:48;11.07;;;4.15;;
60243;SDS011;46106;51.468;5.814;2022-10-31T17:05:16;16.75;;;4.45;;
60243;SDS011;46106;51.468;5.814;2022-10-31T17:07:43;17.30;;;4.47;;